createdAt,value
2022-11-29T00:01:46.311Z,18.50
2022-11-29T00:04:15.684Z,19.40
2022-11-29T00:06:44.862Z,16.87
2022-11-29T00:09:14.620Z,16.97
2022-11-29T00:12:01.528Z,19.33
2022-11-29T00:14:31.715Z,20.47
2022-11-29T00:17:02.696Z,19.73
2022-11-29T00:19:32.370Z,18.83
2022-11-29T00:22:01.422Z,18.10
2022-11-29T00:24:31.706Z,19.83
2022-11-29T00:27:01.250Z,20.30
2022-11-29T00:29:31.986Z,19.87
2022-11-29T00:32:00.730Z,19.13
2022-11-29T00:34:29.923Z,18.87
2022-11-29T00:36:58.658Z,16.30
2022-11-29T00:39:27.443Z,20.13
2022-11-29T00:41:56.342Z,19.60
2022-11-29T00:44:25.156Z,17.23
2022-11-29T00:46:55.099Z,20.40
2022-11-29T00:49:23.821Z,21.77
2022-11-29T00:51:52.457Z,19.27
2022-11-29T00:54:21.105Z,17.50
2022-11-29T00:56:49.740Z,20.73
2022-11-29T00:59:18.358Z,19.43
2022-11-29T01:01:47.042Z,18.07
2022-11-29T01:04:17.633Z,18.47
2022-11-29T01:06:47.426Z,20.07
2022-11-29T01:09:16.176Z,21.03
2022-11-29T01:11:45.197Z,15.80
2022-11-29T01:14:14.613Z,16.13
2022-11-29T01:16:43.571Z,17.33
2022-11-29T01:19:12.228Z,19.93
2022-11-29T01:21:42.409Z,17.87
2022-11-29T01:24:10.937Z,18.77
2022-11-29T01:26:39.529Z,18.30
2022-11-29T01:29:08.139Z,20.27
2022-11-29T01:31:37.088Z,15.97
2022-11-29T01:34:07.020Z,21.13
2022-11-29T01:36:35.729Z,16.33
2022-11-29T01:39:07.522Z,19.50
2022-11-29T01:41:37.561Z,20.43
2022-11-29T01:44:28.631Z,19.20
2022-11-29T01:46:58.418Z,15.97
2022-11-29T01:49:33.338Z,17.20
2022-11-29T01:52:06.092Z,18.63
2022-11-29T01:54:40.704Z,21.97
2022-11-29T01:57:10.633Z,17.63
2022-11-29T01:59:43.397Z,21.07
2022-11-29T02:02:15.663Z,18.23
2022-11-29T02:04:47.259Z,19.93
2022-11-29T02:07:16.624Z,20.13
2022-11-29T02:09:46.977Z,17.43
2022-11-29T02:12:26.799Z,19.57
2022-11-29T02:15:15.813Z,21.03
2022-11-29T02:17:59.462Z,18.53
2022-11-29T02:21:07.957Z,19.77
2022-11-29T02:23:56.037Z,20.87
2022-11-29T02:26:55.412Z,19.17
2022-11-29T02:29:56.752Z,18.80
2022-11-29T02:32:58.683Z,21.10
2022-11-29T02:35:58.719Z,19.90
2022-11-29T02:38:46.497Z,19.50
2022-11-29T02:41:31.419Z,20.37
2022-11-29T02:44:19.092Z,21.47
2022-11-29T02:47:04.660Z,21.67
2022-11-29T02:49:52.795Z,19.27
2022-11-29T02:52:30.673Z,19.43
2022-11-29T02:55:05.904Z,18.70
2022-11-29T02:57:42.065Z,19.67
2022-11-29T03:00:16.937Z,20.90
2022-11-29T03:02:54.069Z,19.43
2022-11-29T03:05:30.802Z,19.97
2022-11-29T03:08:12.809Z,18.17
2022-11-29T03:10:52.598Z,20.00
2022-11-29T03:13:26.237Z,20.17
2022-11-29T03:16:00.654Z,17.67
2022-11-29T03:18:40.435Z,20.47
2022-11-29T03:21:19.734Z,19.37
2022-11-29T03:23:52.991Z,18.67
2022-11-29T03:26:30.075Z,18.37
2022-11-29T03:29:08.070Z,18.40
2022-11-29T03:31:40.615Z,17.73
2022-11-29T03:34:15.725Z,17.10
2022-11-29T03:36:51.248Z,17.97
2022-11-29T03:39:28.842Z,15.93
2022-11-29T03:42:03.405Z,17.83
2022-11-29T03:44:37.464Z,18.80
2022-11-29T03:47:10.350Z,16.13
2022-11-29T03:49:45.677Z,21.50
2022-11-29T03:52:19.472Z,17.70
2022-11-29T03:54:58.237Z,17.23
2022-11-29T03:57:33.897Z,19.70
2022-11-29T04:00:07.167Z,19.63
2022-11-29T04:03:01.389Z,18.03
2022-11-29T04:05:40.420Z,18.27
2022-11-29T04:08:47.131Z,17.43
2022-11-29T04:11:59.033Z,17.20
2022-11-29T04:15:02.119Z,15.13
2022-11-29T04:18:07.260Z,17.23
2022-11-29T04:21:01.769Z,19.67
2022-11-29T04:23:51.280Z,18.67
2022-11-29T04:26:49.266Z,18.17
2022-11-29T04:29:31.868Z,15.97
2022-11-29T04:32:31.443Z,15.83
2022-11-29T04:35:29.983Z,15.30
2022-11-29T04:38:49.382Z,17.10
2022-11-29T04:41:45.252Z,19.10
2022-11-29T04:44:32.876Z,16.80
2022-11-29T04:47:29.548Z,18.13
2022-11-29T04:50:10.146Z,14.07
2022-11-29T04:52:53.684Z,17.20
2022-11-29T04:55:34.260Z,16.50
2022-11-29T04:58:13.031Z,17.90
2022-11-29T05:00:51.369Z,16.63
2022-11-29T05:03:30.820Z,19.77
2022-11-29T05:06:09.131Z,17.33
2022-11-29T05:08:47.051Z,18.50
2022-11-29T05:11:26.747Z,14.73
2022-11-29T05:14:03.046Z,21.37
2022-11-29T05:16:47.476Z,14.47
2022-11-29T05:19:47.320Z,20.77
2022-11-29T05:22:26.997Z,16.67
2022-11-29T05:25:04.349Z,19.87
2022-11-29T05:27:44.239Z,21.90
2022-11-29T05:30:16.219Z,20.40
2022-11-29T05:32:58.769Z,19.73
2022-11-29T05:35:52.856Z,22.00
2022-11-29T05:38:45.238Z,17.27
2022-11-29T05:41:35.925Z,17.03
2022-11-29T05:44:10.330Z,18.20
2022-11-29T05:46:49.990Z,16.50
2022-11-29T05:49:26.878Z,18.37
2022-11-29T05:52:06.630Z,17.77
2022-11-29T05:54:39.177Z,19.03
2022-11-29T05:57:14.783Z,15.93
2022-11-29T05:59:45.494Z,14.43
2022-11-29T06:02:30.105Z,19.23
2022-11-29T06:05:14.998Z,15.87
2022-11-29T06:07:51.909Z,14.67
2022-11-29T06:10:24.447Z,15.97
2022-11-29T06:13:07.166Z,17.10
2022-11-29T06:16:04.932Z,16.73
2022-11-29T06:19:17.291Z,18.10
2022-11-29T06:22:01.308Z,17.03
2022-11-29T06:24:56.690Z,17.43
2022-11-29T06:27:45.589Z,16.57
2022-11-29T06:30:16.570Z,18.23
2022-11-29T06:32:53.071Z,17.63
2022-11-29T06:35:39.194Z,15.17
2022-11-29T06:38:15.463Z,18.67
2022-11-29T06:40:47.625Z,16.43
2022-11-29T06:43:16.909Z,14.40
2022-11-29T06:45:52.269Z,15.10
2022-11-29T06:48:25.520Z,15.67
2022-11-29T06:51:01.467Z,14.97
2022-11-29T06:53:40.013Z,14.73
2022-11-29T06:56:20.877Z,16.70
2022-11-29T06:58:59.044Z,16.73
2022-11-29T07:01:40.236Z,13.67
2022-11-29T07:04:32.332Z,15.10
2022-11-29T07:07:03.017Z,12.10
2022-11-29T07:09:35.742Z,16.93
2022-11-29T07:12:04.962Z,12.90
2022-11-29T07:14:34.120Z,13.00
2022-11-29T07:17:11.227Z,13.07
2022-11-29T07:19:51.210Z,14.90
2022-11-29T07:22:37.912Z,14.07
2022-11-29T07:25:21.583Z,13.40
2022-11-29T07:28:02.094Z,15.53
2022-11-29T07:30:41.190Z,15.23
2022-11-29T07:33:20.094Z,15.40
2022-11-29T07:35:57.774Z,14.60
2022-11-29T07:38:46.165Z,14.07
2022-11-29T07:41:23.430Z,13.23
2022-11-29T07:44:02.092Z,14.83
2022-11-29T07:46:30.700Z,11.30
2022-11-29T07:48:59.315Z,11.97
2022-11-29T07:51:27.857Z,11.67
2022-11-29T07:53:57.754Z,13.33
2022-11-29T07:56:26.298Z,12.67
2022-11-29T07:58:54.890Z,14.53
2022-11-29T08:01:23.575Z,12.57
2022-11-29T08:03:52.247Z,12.50
2022-11-29T08:06:26.507Z,13.57
2022-11-29T08:08:57.873Z,12.80
2022-11-29T08:11:28.089Z,15.33
2022-11-29T08:13:57.883Z,11.33
2022-11-29T08:16:26.565Z,11.93
2022-11-29T08:18:55.307Z,13.63
2022-11-29T08:21:23.868Z,10.40
2022-11-29T08:23:52.717Z,14.40
2022-11-29T08:26:25.555Z,14.60
2022-11-29T08:28:57.086Z,13.77
2022-11-29T08:31:25.772Z,11.73
2022-11-29T08:33:54.383Z,13.03
2022-11-29T08:36:23.006Z,12.10
2022-11-29T08:38:57.166Z,13.03
2022-11-29T08:41:31.101Z,13.67
2022-11-29T08:44:01.020Z,12.50
2022-11-29T08:46:44.089Z,12.60
2022-11-29T08:49:13.156Z,12.57
2022-11-29T08:51:41.777Z,14.00
2022-11-29T08:54:09.575Z,13.07
2022-11-29T08:59:28.607Z,13.63
2022-11-29T09:01:57.259Z,12.40
2022-11-29T09:04:25.820Z,12.40
2022-11-29T09:06:54.500Z,17.00
2022-11-29T09:09:23.116Z,13.43
2022-11-29T09:11:51.705Z,14.03
2022-11-29T09:14:22.371Z,12.50
2022-11-29T09:16:52.364Z,12.97
2022-11-29T09:19:20.982Z,12.60
2022-11-29T09:21:49.518Z,13.07
2022-11-29T09:24:18.732Z,12.00
2022-11-29T09:26:48.428Z,12.23
2022-11-29T09:29:18.194Z,12.27
2022-11-29T09:31:46.793Z,13.90
2022-11-29T09:34:19.967Z,10.80
2022-11-29T09:36:48.553Z,11.80
2022-11-29T09:39:17.181Z,12.37
2022-11-29T09:42:11.084Z,11.90
2022-11-29T09:44:52.309Z,11.93
2022-11-29T09:47:32.962Z,11.43
2022-11-29T09:50:21.401Z,13.27
2022-11-29T09:52:55.501Z,13.23
2022-11-29T09:55:40.142Z,12.13
2022-11-29T09:58:15.183Z,12.73
2022-11-29T10:00:49.657Z,13.70
2022-11-29T10:03:25.434Z,13.47
2022-11-29T10:05:59.915Z,12.37
2022-11-29T10:08:35.004Z,12.50
2022-11-29T10:11:15.797Z,13.13
2022-11-29T10:13:50.027Z,11.63
2022-11-29T10:16:24.999Z,11.77
2022-11-29T10:19:01.128Z,13.07
2022-11-29T10:21:35.449Z,12.77
2022-11-29T10:24:10.194Z,12.33
2022-11-29T10:26:39.140Z,13.00
2022-11-29T10:29:07.734Z,12.67
2022-11-29T10:31:40.186Z,12.50
2022-11-29T10:34:14.699Z,13.03
2022-11-29T10:36:47.377Z,14.77
2022-11-29T10:39:25.308Z,13.37
2022-11-29T10:41:57.768Z,13.53
2022-11-29T10:44:27.901Z,12.70
2022-11-29T10:46:57.070Z,14.77
2022-11-29T10:49:29.446Z,14.60
2022-11-29T10:51:59.351Z,14.23
2022-11-29T10:54:39.607Z,16.20
2022-11-29T10:57:15.409Z,14.07
2022-11-29T11:00:00.500Z,13.83
2022-11-29T11:02:29.721Z,14.03
2022-11-29T11:04:59.697Z,14.87
2022-11-29T11:07:33.191Z,15.20
2022-11-29T11:10:02.741Z,14.80
2022-11-29T11:12:33.269Z,12.67
2022-11-29T11:15:17.605Z,14.70
2022-11-29T11:17:58.924Z,14.80
2022-11-29T11:20:30.317Z,14.17
2022-11-29T11:23:02.516Z,13.67
2022-11-29T11:25:34.700Z,14.17
2022-11-29T11:28:18.102Z,14.60
2022-11-29T11:30:52.753Z,16.70
2022-11-29T11:33:25.539Z,15.07
2022-11-29T11:36:10.063Z,17.70
2022-11-29T11:38:42.061Z,16.73
2022-11-29T11:41:23.480Z,15.10
2022-11-29T11:43:59.552Z,15.57
2022-11-29T11:46:50.537Z,16.20
2022-11-29T11:49:30.923Z,17.70
2022-11-29T11:52:00.759Z,16.97
2022-11-29T11:54:31.763Z,16.70
2022-11-29T11:57:01.347Z,15.40
2022-11-29T11:59:30.260Z,15.10
2022-11-29T12:01:58.902Z,16.37
2022-11-29T12:04:32.988Z,15.37
2022-11-29T12:07:03.558Z,17.63
2022-11-29T12:09:43.702Z,15.73
2022-11-29T12:12:16.115Z,15.00
2022-11-29T12:14:54.665Z,16.10
2022-11-29T12:17:32.464Z,16.00
2022-11-29T12:20:13.197Z,14.10
2022-11-29T12:22:51.653Z,14.37
2022-11-29T12:25:27.325Z,16.40
2022-11-29T12:27:55.940Z,14.87
2022-11-29T12:30:24.930Z,15.20
2022-11-29T12:33:03.887Z,15.10
2022-11-29T12:35:49.132Z,16.20
2022-11-29T12:38:31.250Z,14.33
2022-11-29T12:41:14.162Z,16.97
2022-11-29T12:43:52.583Z,15.03
2022-11-29T12:46:26.082Z,16.17
2022-11-29T12:49:06.233Z,15.63
2022-11-29T12:51:45.281Z,15.73
2022-11-29T12:54:47.985Z,16.00
2022-11-29T12:57:27.042Z,15.13
2022-11-29T13:00:07.127Z,14.40
2022-11-29T13:02:48.612Z,15.03
2022-11-29T13:05:25.734Z,14.47
2022-11-29T13:08:12.016Z,15.47
2022-11-29T13:10:56.825Z,14.00
2022-11-29T13:13:37.213Z,15.17
2022-11-29T13:16:20.546Z,13.30
2022-11-29T13:18:59.280Z,14.30
2022-11-29T13:21:33.287Z,15.07
2022-11-29T13:24:09.396Z,14.47
2022-11-29T13:26:40.226Z,14.67
2022-11-29T13:29:18.761Z,13.00
2022-11-29T13:31:48.292Z,16.17
2022-11-29T13:34:22.873Z,14.43
2022-11-29T13:37:05.710Z,14.97
2022-11-29T13:39:53.991Z,13.90
2022-11-29T13:42:27.438Z,14.23
2022-11-29T13:45:02.398Z,14.40
2022-11-29T13:47:30.936Z,13.93
2022-11-29T13:50:02.728Z,13.43
2022-11-29T13:52:43.014Z,15.07
2022-11-29T13:55:29.186Z,13.20
2022-11-29T13:58:19.662Z,15.10
2022-11-29T14:00:52.602Z,14.87
2022-11-29T14:03:28.984Z,13.93
2022-11-29T14:06:11.188Z,15.93
2022-11-29T14:09:17.067Z,13.07
2022-11-29T14:11:39.106Z,15.43
2022-11-29T14:14:11.118Z,13.53
2022-11-29T14:16:48.718Z,14.20
2022-11-29T14:19:26.667Z,13.00
2022-11-29T14:22:31.467Z,14.77
2022-11-29T14:25:16.308Z,12.70
2022-11-29T14:28:25.894Z,14.60
2022-11-29T14:30:55.580Z,14.93
2022-11-29T14:34:01.873Z,14.07
2022-11-29T14:36:49.854Z,13.47
2022-11-29T14:39:42.965Z,14.00
2022-11-29T14:42:17.123Z,13.80
2022-11-29T14:44:49.606Z,13.40
2022-11-29T14:47:31.804Z,13.30
2022-11-29T14:50:06.568Z,14.33
2022-11-29T14:52:39.304Z,14.47
2022-11-29T14:55:29.623Z,13.83
2022-11-29T14:58:17.704Z,15.70
2022-11-29T15:01:13.333Z,14.07
2022-11-29T15:03:49.556Z,14.73
2022-11-29T15:06:27.888Z,14.33
2022-11-29T15:09:03.303Z,15.30
2022-11-29T15:11:39.098Z,15.50
2022-11-29T15:14:13.562Z,14.23
2022-11-29T15:17:16.378Z,15.30
2022-11-29T15:20:32.265Z,14.37
2022-11-29T15:23:07.341Z,14.50
2022-11-29T15:25:36.587Z,16.07
2022-11-29T15:28:07.297Z,13.50
2022-11-29T15:30:38.631Z,14.73
2022-11-29T15:33:09.857Z,14.43
2022-11-29T15:35:38.760Z,14.47
2022-11-29T15:38:18.059Z,13.87
2022-11-29T15:40:52.960Z,14.77
2022-11-29T15:43:25.590Z,15.93
2022-11-29T15:45:55.464Z,17.57
2022-11-29T15:48:26.783Z,16.20
2022-11-29T15:51:04.238Z,14.53
2022-11-29T15:53:39.668Z,15.37
2022-11-29T15:56:16.186Z,14.97
2022-11-29T15:58:46.135Z,15.70
2022-11-29T16:01:20.485Z,16.10
2022-11-29T16:03:53.286Z,15.23
2022-11-29T16:06:28.246Z,17.53
2022-11-29T16:08:59.119Z,17.03
2022-11-29T16:11:31.420Z,16.23
2022-11-29T16:14:05.076Z,16.53
2022-11-29T16:16:35.623Z,16.27
2022-11-29T16:19:12.032Z,15.63
2022-11-29T16:21:41.019Z,15.60
2022-11-29T16:24:21.286Z,17.40
2022-11-29T16:26:51.896Z,16.30
2022-11-29T16:29:24.661Z,17.87
2022-11-29T16:31:54.044Z,16.67
2022-11-29T16:34:27.628Z,16.43
2022-11-29T16:37:06.797Z,18.27
2022-11-29T16:39:39.918Z,15.97
2022-11-29T16:42:21.925Z,16.30
2022-11-29T16:45:27.613Z,15.67
2022-11-29T16:47:58.883Z,17.70
2022-11-29T16:50:29.455Z,15.07
2022-11-29T16:53:18.407Z,15.17
2022-11-29T16:55:48.323Z,16.80
2022-11-29T16:58:16.878Z,16.07
2022-11-29T17:00:48.155Z,16.90
2022-11-29T17:03:16.732Z,15.03
2022-11-29T17:05:45.599Z,17.33
2022-11-29T17:08:16.120Z,16.57
2022-11-29T17:10:44.755Z,17.57
2022-11-29T17:13:17.387Z,16.13
2022-11-29T17:15:45.928Z,17.77
2022-11-29T17:18:15.193Z,18.40
2022-11-29T17:20:44.331Z,24.10
2022-11-29T17:23:12.892Z,30.47
2022-11-29T17:25:41.498Z,24.87
2022-11-29T17:28:10.071Z,22.80
2022-11-29T17:30:40.049Z,18.40
2022-11-29T17:33:08.546Z,19.00
2022-11-29T17:35:37.136Z,18.23
2022-11-29T17:38:05.646Z,16.00
2022-11-29T17:40:34.251Z,16.33
2022-11-29T17:43:02.822Z,18.97
2022-11-29T17:45:31.511Z,23.37
2022-11-29T17:48:01.670Z,21.00
2022-11-29T17:50:31.347Z,18.63
2022-11-29T17:52:59.913Z,19.30
2022-11-29T17:55:29.751Z,18.93
2022-11-29T17:57:58.408Z,19.83
2022-11-29T18:00:27.268Z,17.17
2022-11-29T18:02:55.789Z,19.97
2022-11-29T18:05:28.954Z,19.90
2022-11-29T18:08:01.741Z,20.57
2022-11-29T18:10:30.424Z,19.30
2022-11-29T18:12:59.003Z,21.10
2022-11-29T18:15:27.587Z,18.93
2022-11-29T18:17:56.296Z,18.93
2022-11-29T18:20:26.193Z,18.13
2022-11-29T18:22:54.761Z,17.13
2022-11-29T18:25:39.824Z,21.37
2022-11-29T18:28:11.316Z,17.10
2022-11-29T18:30:39.953Z,18.47
2022-11-29T18:33:08.505Z,18.33
2022-11-29T18:35:38.484Z,17.80
2022-11-29T18:38:15.314Z,18.17
2022-11-29T18:40:46.698Z,19.33
2022-11-29T18:43:18.120Z,18.63
2022-11-29T18:45:46.812Z,18.07
2022-11-29T18:48:15.674Z,18.87
2022-11-29T18:50:45.754Z,18.00
2022-11-29T18:53:17.558Z,17.57
2022-11-29T18:55:46.146Z,19.77
2022-11-29T18:58:15.301Z,19.37
2022-11-29T19:00:44.513Z,17.03
2022-11-29T19:03:13.123Z,18.10
2022-11-29T19:05:50.328Z,18.60
2022-11-29T19:08:20.314Z,19.23
2022-11-29T19:10:48.917Z,19.07
2022-11-29T19:13:17.574Z,19.77
2022-11-29T19:15:53.048Z,19.00
2022-11-29T19:18:22.065Z,19.00
2022-11-29T19:20:53.201Z,19.97
2022-11-29T19:23:23.339Z,19.90
2022-11-29T19:25:51.962Z,21.40
2022-11-29T19:28:20.522Z,18.13
2022-11-29T19:30:55.307Z,17.63
2022-11-29T19:33:24.038Z,17.87
2022-11-29T19:35:52.648Z,21.07
2022-11-29T19:38:22.584Z,18.63
2022-11-29T19:40:51.232Z,20.60
2022-11-29T19:43:19.976Z,19.43
2022-11-29T19:45:48.594Z,19.57
2022-11-29T19:48:17.425Z,21.13
2022-11-29T19:50:46.015Z,18.23
2022-11-29T19:53:16.450Z,19.77
2022-11-29T19:55:46.416Z,19.07
2022-11-29T19:58:20.636Z,20.43
2022-11-29T20:00:49.314Z,20.17
2022-11-29T20:03:18.055Z,20.27
2022-11-29T20:05:55.497Z,20.50
2022-11-29T20:08:24.171Z,16.20
2022-11-29T20:10:54.468Z,19.93
2022-11-29T20:13:23.401Z,18.33
2022-11-29T20:15:52.166Z,17.90
2022-11-29T20:18:20.852Z,16.67
2022-11-29T20:20:49.467Z,17.20
2022-11-29T20:23:18.135Z,17.00
2022-11-29T20:25:49.881Z,18.07
2022-11-29T20:28:19.932Z,16.40
2022-11-29T20:30:48.561Z,14.70
2022-11-29T20:33:22.696Z,17.03
2022-11-29T20:35:55.239Z,16.43
2022-11-29T20:38:35.146Z,17.77
2022-11-29T20:41:13.138Z,15.83
2022-11-29T20:43:49.254Z,17.33
2022-11-29T20:46:18.353Z,15.70
2022-11-29T20:48:47.354Z,18.67
2022-11-29T20:51:18.353Z,14.73
2022-11-29T20:53:48.467Z,14.83
2022-11-29T20:56:17.050Z,17.47
2022-11-29T20:58:47.326Z,17.53
2022-11-29T21:01:16.107Z,17.03
2022-11-29T21:03:46.813Z,16.63
2022-11-29T21:06:15.637Z,17.37
2022-11-29T21:08:44.239Z,16.77
2022-11-29T21:11:13.890Z,17.70
2022-11-29T21:13:43.000Z,15.63
2022-11-29T21:16:17.605Z,16.00
2022-11-29T21:18:46.805Z,18.77
2022-11-29T21:21:25.900Z,15.37
2022-11-29T21:24:02.126Z,15.73
2022-11-29T21:26:41.786Z,17.70
2022-11-29T21:29:17.449Z,18.90
2022-11-29T21:31:52.573Z,17.67
2022-11-29T21:34:22.033Z,15.77
2022-11-29T21:36:55.847Z,18.03
2022-11-29T21:39:27.973Z,19.83
2022-11-29T21:41:56.678Z,18.03
2022-11-29T21:44:25.370Z,17.57
2022-11-29T21:46:55.529Z,16.53
2022-11-29T21:49:24.260Z,18.13
2022-11-29T21:51:57.624Z,17.83
2022-11-29T21:54:26.223Z,17.50
2022-11-29T21:56:54.973Z,16.90
2022-11-29T21:59:26.418Z,18.00
2022-11-29T22:01:56.644Z,16.90
2022-11-29T22:04:25.529Z,17.70
2022-11-29T22:06:54.172Z,17.80
2022-11-29T22:09:22.853Z,15.07
2022-11-29T22:11:51.518Z,18.40
2022-11-29T22:14:20.249Z,18.17
2022-11-29T22:16:53.533Z,17.37
2022-11-29T22:19:27.913Z,18.90
2022-11-29T22:21:58.311Z,16.87
2022-11-29T22:24:28.553Z,18.13
2022-11-29T22:26:57.783Z,17.87
2022-11-29T22:29:26.637Z,18.37
2022-11-29T22:31:56.808Z,18.87
2022-11-29T22:34:28.431Z,19.43
2022-11-29T22:36:57.348Z,17.37
2022-11-29T22:39:25.937Z,17.67
2022-11-29T22:41:55.349Z,18.60
2022-11-29T22:44:24.404Z,18.90
2022-11-29T22:46:53.366Z,18.33
2022-11-29T22:49:22.087Z,17.63
2022-11-29T22:51:54.984Z,17.83
2022-11-29T22:54:23.575Z,16.93
2022-11-29T22:56:52.396Z,15.60
2022-11-29T22:59:20.968Z,15.90
2022-11-29T23:01:49.588Z,15.03
2022-11-29T23:04:18.152Z,14.73
2022-11-29T23:06:47.299Z,15.10
2022-11-29T23:09:21.297Z,17.77
2022-11-29T23:11:52.085Z,17.37
2022-11-29T23:14:22.044Z,18.57
2022-11-29T23:16:50.734Z,17.00
2022-11-29T23:19:19.603Z,14.20
2022-11-29T23:21:48.436Z,17.00
2022-11-29T23:24:18.430Z,14.37
2022-11-29T23:26:48.155Z,17.27
2022-11-29T23:29:18.187Z,17.33
2022-11-29T23:31:47.797Z,15.73
2022-11-29T23:34:16.773Z,16.73
2022-11-29T23:36:51.145Z,16.87
2022-11-29T23:39:22.794Z,16.50
2022-11-29T23:41:51.347Z,15.53
2022-11-29T23:44:19.990Z,19.10
2022-11-29T23:46:48.527Z,17.80
2022-11-29T23:49:17.188Z,17.73
2022-11-29T23:51:45.931Z,16.80
2022-11-29T23:54:14.733Z,19.13
2022-11-29T23:56:46.079Z,16.03
2022-11-29T23:59:15.223Z,15.57
